Alamosa San Luis Valley Regional Airport

About
Name: Alamosa San Luis Valley Regional Airport
Identifier:  ALS/KALS
Serves:  San Luis Valley , Southern Colorado, Northern New Mexico
Owner:  City and County of Alamosa
Public/Private:  Public
Local Time:  21. Sep 01:10 MDT
Description: San Luis Valley Regional Airport is two miles south of Alamosa, in Alamosa County, Colorado. It sees one airline, subsidized by the Essential Air Service program.
Source: Wikipedia
Location
Runways
Identifier Length (m/ft) Surface
2/20 8,519/8,519 Asphalt
Statistics
Flights per Day:
6 flights
Distance: 289km (179mi)
Flights delayed:
79% (1 flights per day delayed)
Delay Average: 16 minutes
Current Weather
 8 C (Humidity: 42%)
  9kt (16km/h / 10mph) from 180°
  16km (10 mi.)
 
 METAR KALS 210652Z AUTO 18009KT 10SM CLR 08/M04 A3011 RMK AO2 SLP111 T00831039 402390072

Current Flights

Arrivals
Number Arrival From Airline
Landed 4B576 20:00  Denver Aviastar
Landed 4B568 23:20  Denver Aviastar
On time 4B584 13:00  Denver Aviastar

Current Delays

Departures
N/A
Arrivals
N/A

Destinations

Top Destinations
Airport Flights
per week
Seats
per week
  Denver (DEN) 38 - 5 0
  Salida (SLT) 0 - 0 0

Airlines & Planes

Top Airlines
Airline Flights
per Day
Seats
per Day
Boutique Air 2 -
Aviastar 2 -
Alpine Air Express 0 -
Top Plane Types
Model Flights Seats
Pilatus PC-12 5.3/day - 0
Beech C-99 Airliner 0.2/day - 0
Beech 1900D 0.2/day - 0